Time;durP1;ratioP1;P1;durP2;ratioP2;P2;SDS_P1;SDS_P2;PMS_P1;PMS_P2;Temp;Humidity;BMP_temperature;BMP_pressure;BME280_temperature;BME280_humidity;BME280_pressure;Samples;Min_cycle;Max_cycle;Signal;HPM_P1;HPM_P2
2021/04/03 00:01:00;;;;;;;13.38;8.15;;;5.10;86.10;;;;;;5049425;28;20072;-70
2021/04/03 00:03:29;;;;;;;13.98;8.00;;;5.10;87.00;;;;;;5036807;28;20021;-70
2021/04/03 00:05:54;;;;;;;12.82;7.18;;;5.10;87.60;;;;;;5045854;28;20075;-71
2021/04/03 00:08:24;;;;;;;10.77;6.88;;;5.00;86.90;;;;;;5043719;28;20525;-70
2021/04/03 00:11:04;;;;;;;15.52;8.00;;;4.90;87.20;;;;;;5052974;28;20535;-70
2021/04/03 00:13:33;;;;;;;16.98;7.88;;;4.90;87.90;;;;;;5037394;28;20033;-70
2021/04/03 00:15:59;;;;;;;16.25;8.93;;;4.90;88.30;;;;;;5045044;28;20109;-69
2021/04/03 00:18:25;;;;;;;11.45;7.25;;;5.00;88.90;;;;;;5044088;28;20117;-69
2021/04/03 00:20:51;;;;;;;10.88;6.85;;;4.90;88.40;;;;;;5038006;28;20033;-70
2021/04/03 00:23:19;;;;;;;14.23;7.07;;;4.80;87.90;;;;;;5049649;28;20033;-70
2021/04/03 00:25:45;;;;;;;12.98;7.57;;;4.90;88.60;;;;;;5039050;28;20429;-70
2021/04/03 00:28:11;;;;;;;11.93;6.80;;;5.00;88.70;;;;;;5042602;28;20032;-70
2021/04/03 00:30:37;;;;;;;10.40;6.15;;;5.00;88.70;;;;;;5028069;28;20096;-70
2021/04/03 00:33:04;;;;;;;10.73;5.60;;;5.00;88.60;;;;;;5018544;28;20486;-69
2021/04/03 00:35:35;;;;;;;10.48;5.50;;;5.10;87.90;;;;;;5048629;28;20040;-69
2021/04/03 00:38:02;;;;;;;9.53;5.40;;;5.10;88.50;;;;;;5032487;28;20021;-70
2021/04/03 00:40:30;;;;;;;10.80;5.65;;;5.00;88.60;;;;;;5044851;28;20100;-70
2021/04/03 00:43:01;;;;;;;8.93;4.57;;;5.10;88.40;;;;;;5036902;28;20442;-70
2021/04/03 00:45:27;;;;;;;10.27;6.03;;;5.00;87.80;;;;;;5015380;28;20025;-70
2021/04/03 00:47:53;;;;;;;7.80;4.68;;;5.00;88.50;;;;;;5038960;28;20094;-69
2021/04/03 00:50:23;;;;;;;9.23;5.25;;;5.00;88.20;;;;;;5041545;28;20030;-69
2021/04/03 00:52:49;;;;;;;9.88;5.28;;;5.00;88.40;;;;;;5047437;28;20092;-70
2021/04/03 00:55:15;;;;;;;10.02;5.18;;;5.00;89.10;;;;;;5017845;28;20141;-69
2021/04/03 00:57:41;;;;;;;12.98;5.43;;;5.00;89.30;;;;;;5028475;28;20021;-68
2021/04/03 01:00:09;;;;;;;10.48;5.75;;;5.00;89.30;;;;;;5041531;28;20017;-68
2021/04/03 01:02:35;;;;;;;10.18;5.80;;;5.00;89.10;;;;;;5039179;28;20048;-68
2021/04/03 01:05:05;;;;;;;9.65;5.38;;;4.90;89.10;;;;;;5048300;28;20078;-68
2021/04/03 01:07:31;;;;;;;10.80;6.20;;;4.80;88.70;;;;;;5017895;28;20029;-68
2021/04/03 01:09:56;;;;;;;16.85;7.38;;;4.60;89.10;;;;;;5034096;28;20029;-68
2021/04/03 01:12:29;;;;;;;14.85;7.07;;;4.70;90.00;;;;;;5049178;28;20076;-68
2021/04/03 01:14:57;;;;;;;12.68;7.63;;;4.70;90.20;;;;;;5034119;28;20052;-68
2021/04/03 01:17:36;;;;;;;11.40;6.85;;;4.80;90.30;;;;;;5016708;28;20023;-68
2021/04/03 01:20:30;;;;;;;15.23;7.00;;;4.80;90.00;;;;;;5043554;28;20013;-69
2021/04/03 01:23:37;;;;;;;17.88;7.47;;;4.80;90.10;;;;;;5047718;28;20372;-69
2021/04/03 01:26:40;;;;;;;16.80;8.05;;;4.80;90.40;;;;;;5028274;28;20037;-69
2021/04/03 01:29:21;;;;;;;15.50;7.60;;;4.80;90.40;;;;;;5034773;28;20427;-70
2021/04/03 01:31:47;;;;;;;13.82;7.63;;;4.90;90.50;;;;;;5030165;28;20068;-69
2021/04/03 01:34:20;;;;;;;15.90;7.32;;;4.90;90.60;;;;;;5048633;28;20122;-70
2021/04/03 01:36:48;;;;;;;16.25;8.15;;;4.90;90.60;;;;;;5025073;28;20030;-70
2021/04/03 01:39:17;;;;;;;19.38;10.10;;;5.00;90.50;;;;;;5019417;28;20061;-69
2021/04/03 01:41:48;;;;;;;21.88;8.30;;;5.00;90.80;;;;;;5047136;28;20120;-70
2021/04/03 01:44:20;;;;;;;30.38;9.27;;;5.00;90.80;;;;;;5024070;28;20025;-69
2021/04/03 01:46:51;;;;;;;18.40;7.82;;;5.00;90.50;;;;;;5032928;28;20035;-69
2021/04/03 01:49:21;;;;;;;16.88;8.13;;;5.00;90.30;;;;;;5016213;28;20025;-69
2021/04/03 01:51:49;;;;;;;16.75;7.68;;;5.00;90.40;;;;;;5027046;28;20083;-69
2021/04/03 01:54:16;;;;;;;17.67;7.85;;;5.00;89.90;;;;;;5041525;28;20514;-68
2021/04/03 01:56:44;;;;;;;18.30;8.25;;;5.00;89.90;;;;;;5019285;28;20037;-67
2021/04/03 01:59:11;;;;;;;20.27;8.50;;;5.10;90.20;;;;;;5047549;28;20020;-69
2021/04/03 02:01:43;;;;;;;24.80;10.15;;;5.20;89.90;;;;;;5036138;28;20028;-68
2021/04/03 02:04:11;;;;;;;19.58;8.85;;;5.30;90.40;;;;;;5024417;28;20087;-69
2021/04/03 02:06:39;;;;;;;21.45;9.77;;;5.20;90.00;;;;;;5025882;28;20487;-68
2021/04/03 02:09:07;;;;;;;26.75;9.70;;;5.30;89.80;;;;;;5034578;28;20383;-69
2021/04/03 02:11:35;;;;;;;21.92;10.52;;;5.30;89.60;;;;;;5046703;28;20499;-69
2021/04/03 02:14:03;;;;;;;24.25;9.73;;;5.30;89.20;;;;;;5039477;28;20025;-69
2021/04/03 02:16:31;;;;;;;20.42;10.50;;;5.30;89.40;;;;;;5020833;28;20033;-71
2021/04/03 02:18:57;;;;;;;24.45;11.18;;;5.30;89.30;;;;;;5047133;28;20128;-71
2021/04/03 02:21:24;;;;;;;19.63;10.18;;;5.30;89.60;;;;;;5029900;28;20407;-70
2021/04/03 02:23:50;;;;;;;19.85;10.85;;;5.40;88.70;;;;;;5038392;28;20438;-70
2021/04/03 02:26:16;;;;;;;23.48;10.43;;;5.40;88.40;;;;;;5040456;28;20036;-69
2021/04/03 02:28:42;;;;;;;27.15;11.82;;;5.40;88.60;;;;;;5027764;28;20120;-70
2021/04/03 02:31:07;;;;;;;21.15;9.10;;;5.40;88.40;;;;;;5016849;28;20037;-70
2021/04/03 02:33:33;;;;;;;20.65;10.60;;;5.40;88.20;;;;;;5047755;28;20022;-70
2021/04/03 02:35:58;;;;;;;23.08;10.48;;;5.30;88.40;;;;;;5022350;28;20478;-70
2021/04/03 02:38:24;;;;;;;22.48;11.43;;;5.30;88.70;;;;;;5039885;28;20491;-70
2021/04/03 02:40:50;;;;;;;19.65;9.82;;;5.50;88.70;;;;;;5028176;28;20041;-71
2021/04/03 02:43:27;;;;;;;22.13;9.30;;;5.40;88.00;;;;;;5034567;28;20057;-71
2021/04/03 02:46:00;;;;;;;24.55;10.30;;;5.40;87.50;;;;;;5044226;28;20032;-71
2021/04/03 02:48:30;;;;;;;20.23;10.45;;;5.40;87.70;;;;;;5042723;28;20021;-70
2021/04/03 02:50:58;;;;;;;18.50;10.13;;;5.40;87.50;;;;;;5035797;28;20032;-70
2021/04/03 02:53:30;;;;;;;20.90;9.45;;;5.40;87.80;;;;;;5049218;28;20025;-70
2021/04/03 02:55:58;;;;;;;15.70;10.05;;;5.50;87.40;;;;;;5023050;28;20501;-70
2021/04/03 02:58:28;;;;;;;25.63;10.40;;;5.50;87.40;;;;;;5041183;28;20044;-71
2021/04/03 03:00:57;;;;;;;21.55;10.63;;;5.40;87.60;;;;;;5050788;28;20071;-70
2021/04/03 03:03:23;;;;;;;31.42;11.65;;;5.40;87.40;;;;;;5038113;28;20510;-70
2021/04/03 03:05:53;;;;;;;22.73;10.10;;;5.50;87.90;;;;;;5047881;28;20502;-70
2021/04/03 03:08:22;;;;;;;23.67;10.02;;;5.40;86.90;;;;;;5045370;28;20159;-69
2021/04/03 03:10:49;;;;;;;26.60;11.93;;;5.40;87.00;;;;;;5040787;28;20017;-70
2021/04/03 03:13:17;;;;;;;19.83;11.05;;;5.40;87.00;;;;;;5035280;28;20560;-69
2021/04/03 03:15:43;;;;;;;24.80;11.05;;;5.40;87.30;;;;;;5055242;28;20012;-71
2021/04/03 03:18:10;;;;;;;227.35;117.07;;;5.30;86.60;;;;;;5044970;28;20495;-69
2021/04/03 03:20:35;;;;;;;507.65;293.63;;;5.40;87.20;;;;;;5047457;28;20109;-70
2021/04/03 03:23:01;;;;;;;49.88;24.55;;;5.30;87.00;;;;;;5037530;28;20564;-70
2021/04/03 03:25:27;;;;;;;26.92;12.27;;;5.30;87.10;;;;;;5032906;28;20557;-69
2021/04/03 03:27:54;;;;;;;25.33;10.52;;;5.40;86.70;;;;;;5040929;28;20090;-70
2021/04/03 03:30:22;;;;;;;24.63;11.35;;;5.40;86.70;;;;;;5043634;28;20096;-69
2021/04/03 03:32:47;;;;;;;30.60;11.80;;;5.40;87.10;;;;;;5030878;28;20048;-69
2021/04/03 03:35:14;;;;;;;23.50;11.75;;;5.40;86.90;;;;;;5037029;28;20030;-70
2021/04/03 03:37:42;;;;;;;24.52;11.23;;;5.40;86.70;;;;;;5052374;28;20101;-69
2021/04/03 03:40:09;;;;;;;30.33;12.05;;;5.40;86.80;;;;;;5053794;28;20025;-70
2021/04/03 03:42:35;;;;;;;34.75;12.20;;;5.50;86.80;;;;;;5040557;28;20458;-69
2021/04/03 03:45:04;;;;;;;25.13;11.35;;;5.50;86.90;;;;;;5050063;28;20482;-70
2021/04/03 03:47:31;;;;;;;25.88;11.95;;;5.40;86.80;;;;;;5037067;28;20029;-70
2021/04/03 03:49:56;;;;;;;27.08;12.32;;;5.50;87.30;;;;;;5032281;28;20056;-71
2021/04/03 03:52:22;;;;;;;25.70;11.50;;;5.50;86.90;;;;;;5023592;28;20049;-70
2021/04/03 03:54:48;;;;;;;27.65;11.20;;;5.50;86.80;;;;;;5015762;28;20025;-71
2021/04/03 03:57:13;;;;;;;24.83;11.05;;;5.50;86.10;;;;;;5016846;28;20025;-71
2021/04/03 03:59:39;;;;;;;26.85;11.57;;;5.40;86.70;;;;;;5048153;28;20014;-70
2021/04/03 04:02:05;;;;;;;25.90;9.93;;;5.50;86.80;;;;;;5042223;28;20017;-71
2021/04/03 04:04:30;;;;;;;22.92;10.75;;;5.50;85.90;;;;;;5040827;28;20109;-70
2021/04/03 04:06:56;;;;;;;19.25;10.60;;;5.50;85.50;;;;;;5030583;28;20391;-71
2021/04/03 04:09:21;;;;;;;24.25;10.85;;;5.40;85.60;;;;;;5036467;28;20028;-70
2021/04/03 04:11:47;;;;;;;29.38;11.52;;;5.50;85.70;;;;;;5031145;28;20112;-71
2021/04/03 04:14:13;;;;;;;28.75;11.40;;;5.40;86.10;;;;;;5025301;28;20032;-70
2021/04/03 04:16:41;;;;;;;21.83;11.05;;;5.50;85.90;;;;;;5021232;28;20032;-70
2021/04/03 04:19:07;;;;;;;26.67;11.10;;;5.30;86.20;;;;;;5031324;28;20029;-71
2021/04/03 04:21:32;;;;;;;29.55;11.68;;;5.30;86.80;;;;;;5037407;28;20028;-70
2021/04/03 04:23:58;;;;;;;23.52;11.05;;;5.40;85.90;;;;;;5045025;28;20093;-70
2021/04/03 04:26:23;;;;;;;26.30;11.93;;;5.40;85.70;;;;;;5043808;28;20090;-70
2021/04/03 04:28:49;;;;;;;26.50;11.10;;;5.40;85.70;;;;;;5038103;28;20153;-71
2021/04/03 04:31:15;;;;;;;23.80;11.63;;;5.30;85.50;;;;;;5049165;28;20024;-71
2021/04/03 04:33:43;;;;;;;22.80;11.88;;;5.40;85.60;;;;;;5038183;28;20020;-69
2021/04/03 04:36:09;;;;;;;25.70;11.50;;;5.30;85.70;;;;;;5042929;28;20010;-70
2021/04/03 04:38:34;;;;;;;26.30;11.40;;;5.40;85.20;;;;;;5033468;28;20032;-70
2021/04/03 04:41:00;;;;;;;26.58;11.65;;;5.30;85.00;;;;;;5030901;28;20505;-71
2021/04/03 04:43:26;;;;;;;28.30;11.57;;;5.30;85.20;;;;;;5036086;28;20437;-69
2021/04/03 04:45:53;;;;;;;30.73;11.43;;;5.40;85.30;;;;;;5045430;28;20037;-70
2021/04/03 04:48:18;;;;;;;28.33;11.95;;;5.50;85.30;;;;;;5024637;28;20116;-71
2021/04/03 04:50:46;;;;;;;35.78;11.98;;;5.40;85.90;;;;;;5052333;28;20032;-71
2021/04/03 04:53:13;;;;;;;26.30;11.27;;;5.50;85.10;;;;;;5035419;28;20022;-70
2021/04/03 04:55:38;;;;;;;26.80;10.93;;;5.50;85.00;;;;;;5047219;28;20024;-70
2021/04/03 04:58:04;;;;;;;30.65;12.13;;;5.50;85.10;;;;;;5040417;28;20021;-70
2021/04/03 05:00:29;;;;;;;25.98;11.65;;;5.40;85.10;;;;;;5040023;28;20051;-70
2021/04/03 05:02:55;;;;;;;29.75;10.93;;;5.40;85.20;;;;;;5047418;28;20028;-69
2021/04/03 05:05:21;;;;;;;22.70;10.75;;;5.40;84.90;;;;;;5035615;28;20043;-70
2021/04/03 05:07:46;;;;;;;31.23;11.73;;;5.50;85.20;;;;;;5045376;28;20100;-70
2021/04/03 05:10:13;;;;;;;28.83;11.20;;;5.50;84.70;;;;;;5039945;28;20532;-71
2021/04/03 05:12:39;;;;;;;18.88;10.45;;;5.50;85.00;;;;;;5034304;28;20188;-71
2021/04/03 05:15:05;;;;;;;23.80;11.95;;;5.50;84.50;;;;;;5031114;28;20022;-70
2021/04/03 05:17:31;;;;;;;25.60;11.10;;;5.50;85.40;;;;;;5030120;28;20051;-70
2021/04/03 05:19:56;;;;;;;23.73;11.80;;;5.50;84.90;;;;;;5039696;28;20443;-69
2021/04/03 05:22:22;;;;;;;32.00;10.90;;;5.50;84.50;;;;;;5040669;28;20092;-70
2021/04/03 05:24:47;;;;;;;29.50;10.93;;;5.50;84.40;;;;;;5046712;28;20104;-70
2021/04/03 05:27:13;;;;;;;28.38;10.95;;;5.60;84.50;;;;;;5034361;28;20454;-70
2021/04/03 05:29:39;;;;;;;28.27;10.98;;;5.60;84.10;;;;;;5028624;28;20021;-70
2021/04/03 05:32:06;;;;;;;35.38;11.63;;;5.60;83.80;;;;;;5022624;28;20033;-71
2021/04/03 05:34:31;;;;;;;30.60;11.38;;;5.70;84.20;;;;;;5021614;28;20057;-71
2021/04/03 05:36:57;;;;;;;27.17;10.82;;;5.60;83.60;;;;;;5047156;28;20048;-71
2021/04/03 05:39:23;;;;;;;29.17;12.20;;;5.60;83.90;;;;;;5050700;28;20024;-70
2021/04/03 05:41:48;;;;;;;33.58;11.43;;;5.60;84.90;;;;;;5030531;28;20095;-70
2021/04/03 05:44:15;;;;;;;33.60;11.60;;;5.70;84.20;;;;;;5041751;28;20417;-71
2021/04/03 05:46:43;;;;;;;29.35;11.65;;;5.70;84.00;;;;;;5036929;28;20087;-72
2021/04/03 05:49:09;;;;;;;31.33;11.60;;;5.70;83.60;;;;;;5047821;28;20437;-71
2021/04/03 05:51:35;;;;;;;26.77;11.88;;;5.70;84.00;;;;;;5035927;28;20029;-70
2021/04/03 05:54:02;;;;;;;202.00;86.85;;;5.80;83.90;;;;;;5043139;28;20052;-70
2021/04/03 05:56:28;;;;;;;69.88;30.27;;;5.80;83.70;;;;;;5024753;28;20486;-70
2021/04/03 05:58:54;;;;;;;57.95;25.73;;;5.80;83.10;;;;;;5035568;28;20032;-71
2021/04/03 06:01:20;;;;;;;90.15;36.22;;;5.80;82.70;;;;;;5049158;28;20041;-71
2021/04/03 06:03:46;;;;;;;125.38;49.42;;;5.70;82.90;;;;;;5044882;28;20033;-71
2021/04/03 06:06:12;;;;;;;180.35;82.72;;;5.70;83.70;;;;;;5040332;28;20029;-69
2021/04/03 06:08:38;;;;;;;54.50;25.02;;;5.80;83.60;;;;;;5020279;28;20056;-70
2021/04/03 06:11:14;;;;;;;137.10;60.53;;;5.90;82.80;;;;;;5047354;28;20479;-69
2021/04/03 06:13:41;;;;;;;94.72;43.42;;;6.00;83.20;;;;;;5036384;28;20029;-69
2021/04/03 06:16:34;;;;;;;98.70;42.58;;;6.00;83.60;;;;;;5041429;28;20021;-68
2021/04/03 06:19:20;;;;;;;61.35;28.60;;;6.00;82.80;;;;;;5029375;28;20028;-69
2021/04/03 06:21:54;;;;;;;50.40;18.00;;;6.00;81.80;;;;;;5031041;28;20029;-72
2021/04/03 06:24:25;;;;;;;61.03;33.92;;;5.90;82.20;;;;;;5031176;28;20037;-73
2021/04/03 06:27:11;;;;;;;30.17;14.25;;;5.80;81.10;;;;;;5028074;28;20402;-73
2021/04/03 06:29:42;;;;;;;54.22;22.83;;;5.80;81.10;;;;;;5016208;28;20022;-71
2021/04/03 06:32:09;;;;;;;;;;;5.80;81.90;;;;;;5023338;28;20028;-72
2021/04/03 06:34:40;;;;;;;23.48;10.90;;;5.80;81.50;;;;;;5055783;28;19961;-73
2021/04/03 06:37:08;;;;;;;29.77;12.63;;;5.80;81.40;;;;;;5037360;28;20022;-72
2021/04/03 06:40:12;;;;;;;30.15;11.60;;;5.80;81.40;;;;;;5039115;28;20025;-71
2021/04/03 06:42:52;;;;;;;25.75;11.90;;;5.80;80.70;;;;;;5041691;28;20037;-72
2021/04/03 06:45:24;;;;;;;29.65;11.93;;;5.90;81.10;;;;;;5051208;28;20457;-72
2021/04/03 06:47:52;;;;;;;27.45;11.60;;;6.00;81.00;;;;;;5040945;28;20096;-73
2021/04/03 06:50:20;;;;;;;22.25;9.20;;;6.10;80.30;;;;;;5026210;28;20033;-72
2021/04/03 06:52:46;;;;;;;29.85;10.95;;;6.10;79.60;;;;;;5049187;28;20556;-73
2021/04/03 06:55:14;;;;;;;24.33;10.70;;;6.20;79.80;;;;;;5037952;28;20104;-69
2021/04/03 06:57:44;;;;;;;32.50;11.35;;;6.30;78.60;;;;;;5032673;28;20013;-69
2021/04/03 07:00:12;;;;;;;23.50;10.55;;;6.30;79.20;;;;;;5044116;28;20047;-69
2021/04/03 07:02:44;;;;;;;26.10;10.25;;;6.30;79.10;;;;;;5023622;28;20104;-70
2021/04/03 07:05:12;;;;;;;32.08;12.63;;;6.20;78.80;;;;;;5050590;28;20051;-67
2021/04/03 07:07:38;;;;;;;20.77;10.13;;;6.20;79.90;;;;;;5020807;28;20024;-70
2021/04/03 07:10:05;;;;;;;27.25;11.38;;;6.10;78.90;;;;;;5045543;28;20029;-70
2021/04/03 07:12:32;;;;;;;18.48;8.32;;;6.10;79.20;;;;;;5046368;28;20029;-70
2021/04/03 07:14:57;;;;;;;29.05;10.48;;;6.10;78.90;;;;;;5036199;28;20036;-71
2021/04/03 07:17:24;;;;;;;26.35;11.43;;;6.10;79.20;;;;;;5036942;28;20017;-69
2021/04/03 07:19:51;;;;;;;30.02;10.95;;;6.10;79.20;;;;;;5047377;28;20018;-70
2021/04/03 07:22:20;;;;;;;23.23;10.48;;;6.00;78.80;;;;;;5044460;28;20151;-71
2021/04/03 07:24:45;;;;;;;27.73;11.40;;;5.90;79.10;;;;;;5039675;28;20112;-70
2021/04/03 07:27:11;;;;;;;26.05;10.80;;;5.90;80.20;;;;;;5031952;28;20108;-73
2021/04/03 07:29:49;;;;;;;117.32;66.25;;;6.00;79.80;;;;;;5039159;28;20471;-73
2021/04/03 07:32:44;;;;;;;558.83;379.63;;;6.30;80.00;;;;;;5043829;28;20112;-74
2021/04/03 07:35:17;;;;;;;202.23;128.73;;;6.50;79.90;;;;;;5017961;28;20487;-73
2021/04/03 07:37:43;;;;;;;55.15;30.27;;;6.50;78.40;;;;;;5035043;28;20120;-73
2021/04/03 07:40:24;;;;;;;27.67;11.98;;;6.50;77.50;;;;;;5052467;28;20056;-73
2021/04/03 07:42:51;;;;;;;22.38;10.13;;;6.50;77.80;;;;;;5080783;22;20057;-69
2021/04/03 07:45:40;;;;;;;26.55;12.07;;;6.40;77.30;;;;;;5051314;28;20032;-69
2021/04/03 07:48:12;;;;;;;24.45;11.20;;;6.30;78.40;;;;;;5060202;28;20019;-69
2021/04/03 07:50:45;;;;;;;20.63;10.27;;;6.10;78.20;;;;;;5060041;28;20033;-68
2021/04/03 07:53:11;;;;;;;21.42;10.00;;;6.10;78.60;;;;;;5069886;28;20033;-69
2021/04/03 07:55:42;;;;;;;22.17;10.48;;;6.10;78.40;;;;;;5039381;28;20034;-68
2021/04/03 07:58:32;;;;;;;24.75;10.63;;;6.30;77.90;;;;;;5063507;28;20017;-68
2021/04/03 08:01:04;;;;;;;18.50;10.40;;;6.40;77.90;;;;;;5057177;28;20029;-69
2021/04/03 08:03:32;;;;;;;24.50;10.73;;;6.50;77.20;;;;;;5041149;28;20030;-68
2021/04/03 08:06:09;;;;;;;25.60;10.70;;;6.60;77.20;;;;;;5065409;28;20025;-69
2021/04/03 08:08:38;;;;;;;21.40;10.25;;;6.90;76.30;;;;;;5066084;28;20060;-68
2021/04/03 08:11:12;;;;;;;21.10;9.77;;;7.10;74.80;;;;;;5056560;28;20490;-69
2021/04/03 08:13:40;;;;;;;17.63;8.32;;;7.30;74.50;;;;;;5050605;28;20111;-66
2021/04/03 08:16:09;;;;;;;20.80;9.50;;;7.50;73.30;;;;;;5062002;28;20020;-66
2021/04/03 08:18:37;;;;;;;20.52;8.85;;;7.50;72.90;;;;;;5060137;28;20021;-68
2021/04/03 08:21:03;;;;;;;41.00;21.98;;;7.40;72.60;;;;;;5068966;28;20028;-68
2021/04/03 08:23:40;;;;;;;55.55;29.40;;;7.30;73.50;;;;;;5057051;28;20069;-67
2021/04/03 08:26:07;;;;;;;31.35;12.27;;;7.20;73.90;;;;;;5063469;28;20498;-67
2021/04/03 08:28:33;;;;;;;146.02;62.75;;;7.00;73.90;;;;;;5065766;28;20138;-69
2021/04/03 08:31:32;;;;;;;343.58;143.65;;;7.00;75.50;;;;;;5056895;28;20025;-68
2021/04/03 08:34:04;;;;;;;45.75;18.75;;;7.30;75.20;;;;;;5049087;28;20356;-69
2021/04/03 08:36:33;;;;;;;;;;;7.50;73.40;;;;;;5060327;28;20017;-68
2021/04/03 08:39:19;;;;;;;22.52;9.45;;;7.40;72.30;;;;;;5053248;28;19991;-69
2021/04/03 08:41:50;;;;;;;27.95;12.63;;;7.30;73.40;;;;;;5044669;28;20039;-69
2021/04/03 08:44:20;;;;;;;17.63;8.95;;;7.40;72.80;;;;;;5044727;28;20513;-67
2021/04/03 08:46:49;;;;;;;31.33;13.20;;;7.30;73.20;;;;;;5066565;28;20044;-68
2021/04/03 08:49:34;;;;;;;37.25;15.57;;;7.00;76.20;;;;;;5056507;28;20030;-68
2021/04/03 08:52:00;;;;;;;48.53;20.25;;;6.30;81.50;;;;;;5064791;28;20021;-68
2021/04/03 08:54:33;;;;;;;51.05;18.35;;;5.90;84.80;;;;;;5064085;28;20131;-69
2021/04/03 08:56:59;;;;;;;17.20;7.53;;;5.80;86.00;;;;;;5054965;28;20029;-68
2021/04/03 08:59:25;;;;;;;17.02;8.90;;;5.70;86.20;;;;;;5068733;28;20029;-68
2021/04/03 09:01:54;;;;;;;33.53;14.32;;;5.70;85.10;;;;;;5059435;28;20020;-67
2021/04/03 09:04:20;;;;;;;29.08;13.23;;;5.80;86.10;;;;;;5043409;28;20067;-68
2021/04/03 09:06:55;;;;;;;31.85;14.52;;;6.00;86.40;;;;;;5065763;28;20036;-68
2021/04/03 09:09:28;;;;;;;13.55;6.95;;;6.40;86.80;;;;;;5037560;28;20021;-67
2021/04/03 09:12:05;;;;;;;19.25;9.90;;;6.90;84.70;;;;;;5064538;28;20104;-67
2021/04/03 09:14:39;;;;;;;10.38;5.60;;;7.70;84.70;;;;;;5065155;28;20031;-67
2021/04/03 09:17:22;;;;;;;7.97;4.43;;;8.00;77.60;;;;;;5054288;28;20040;-68
2021/04/03 09:19:50;;;;;;;13.73;6.60;;;8.00;76.80;;;;;;5065911;28;20048;-68
2021/04/03 09:22:20;;;;;;;8.85;4.25;;;7.90;75.40;;;;;;5044323;28;20052;-68
2021/04/03 09:24:59;;;;;;;23.83;9.70;;;8.30;76.20;;;;;;5055419;28;20092;-68
2021/04/03 09:27:28;;;;;;;19.08;7.97;;;8.70;74.80;;;;;;5067101;28;20017;-68
2021/04/03 09:30:05;;;;;;;18.47;8.20;;;9.70;73.10;;;;;;5058911;28;20021;-68
2021/04/03 09:32:48;;;;;;;25.35;10.18;;;10.10;68.80;;;;;;5034906;28;20033;-69
2021/04/03 09:35:21;;;;;;;24.63;11.57;;;11.10;67.20;;;;;;5037256;28;20025;-68
2021/04/03 09:38:03;;;;;;;25.58;12.32;;;12.00;64.90;;;;;;5030074;28;20048;-67
2021/04/03 09:40:37;;;;;;;10.27;6.40;;;12.70;60.70;;;;;;5057271;28;20032;-68
2021/04/03 09:43:03;;;;;;;23.83;11.15;;;13.00;57.50;;;;;;5037868;28;20293;-67
2021/04/03 09:45:29;;;;;;;27.90;14.15;;;12.80;58.30;;;;;;5068362;28;20038;-67
2021/04/03 09:47:58;;;;;;;17.50;8.57;;;11.70;59.30;;;;;;5058313;28;20237;-68
2021/04/03 09:50:25;;;;;;;22.42;11.02;;;10.80;62.00;;;;;;5042026;28;20078;-66
2021/04/03 09:52:53;;;;;;;19.60;11.07;;;11.00;61.80;;;;;;5065806;28;20027;-67
2021/04/03 09:55:19;;;;;;;19.63;8.23;;;11.20;60.90;;;;;;5053540;28;20024;-68
2021/04/03 09:57:45;;;;;;;19.55;10.27;;;11.60;56.80;;;;;;5064077;28;20017;-67
2021/04/03 10:00:11;;;;;;;11.90;5.18;;;11.80;57.60;;;;;;5060865;28;20470;-67
2021/04/03 10:02:37;;;;;;;11.18;5.30;;;11.90;53.20;;;;;;5057325;28;20017;-67
2021/04/03 10:05:04;;;;;;;15.70;8.27;;;11.80;52.70;;;;;;5047280;28;20372;-70
2021/04/03 10:07:29;;;;;;;213.90;89.35;;;11.80;53.70;;;;;;5033258;28;20020;-70
2021/04/03 10:09:55;;;;;;;18.27;9.90;;;11.50;55.10;;;;;;5045157;28;20051;-68
2021/04/03 10:12:21;;;;;;;32.92;12.50;;;11.00;55.30;;;;;;5042211;28;20113;-68
2021/04/03 10:14:46;;;;;;;12.18;4.72;;;10.40;57.30;;;;;;5046002;28;20096;-68
2021/04/03 10:17:15;;;;;;;26.75;4.72;;;10.70;55.90;;;;;;5050394;28;20383;-69
2021/04/03 10:19:41;;;;;;;38.08;16.05;;;11.10;52.40;;;;;;5050980;28;20060;-69
2021/04/03 10:22:12;;;;;;;16.85;7.88;;;11.50;53.30;;;;;;5059459;28;20044;-70
2021/04/03 10:24:37;;;;;;;11.32;5.75;;;11.40;52.30;;;;;;5039999;28;20466;-68
2021/04/03 10:27:04;;;;;;;9.20;4.70;;;11.20;49.60;;;;;;5049226;28;20068;-68
2021/04/03 10:29:29;;;;;;;13.25;5.25;;;11.00;51.50;;;;;;5049044;28;20028;-68
2021/04/03 10:31:55;;;;;;;10.38;4.82;;;10.90;51.80;;;;;;5025405;28;20046;-69
2021/04/03 10:34:26;;;;;;;55.70;38.08;;;10.40;51.10;;;;;;5049496;28;21244;-70
2021/04/03 10:36:51;;;;;;;66.00;34.80;;;10.40;50.80;;;;;;5065863;28;20103;-68
2021/04/03 10:39:22;;;;;;;59.45;32.25;;;10.60;51.90;;;;;;5038122;28;20155;-68
2021/04/03 10:41:53;;;;;;;15.57;7.90;;;10.80;50.10;;;;;;5069714;28;20028;-68
2021/04/03 10:44:19;;;;;;;14.60;5.50;;;10.90;51.90;;;;;;5060179;28;20045;-67
2021/04/03 10:46:44;;;;;;;37.53;18.48;;;10.90;50.50;;;;;;5057538;28;20227;-68
2021/04/03 10:49:10;;;;;;;35.85;17.25;;;10.60;50.70;;;;;;5067062;28;20520;-68
2021/04/03 10:51:35;;;;;;;27.92;14.88;;;10.10;51.20;;;;;;5037565;28;20032;-67
2021/04/03 10:54:03;;;;;;;66.50;32.13;;;9.90;51.00;;;;;;5059717;28;20033;-68
2021/04/03 10:56:28;;;;;;;16.35;7.90;;;9.80;52.30;;;;;;5057739;28;20014;-67
2021/04/03 10:58:54;;;;;;;45.25;20.27;;;9.70;51.10;;;;;;5066556;28;20021;-68
2021/04/03 11:01:32;;;;;;;34.65;13.20;;;9.60;53.30;;;;;;5036617;28;20071;-70
2021/04/03 11:03:57;;;;;;;29.80;11.60;;;9.70;52.80;;;;;;5039230;28;20021;-68
2021/04/03 11:06:26;;;;;;;36.97;16.30;;;10.00;52.50;;;;;;5044213;28;20399;-67
2021/04/03 11:09:00;;;;;;;15.93;6.70;;;10.40;52.80;;;;;;5068552;28;20021;-68
2021/04/03 11:11:33;;;;;;;15.98;6.93;;;10.70;50.40;;;;;;5037139;28;20092;-70
2021/04/03 11:13:59;;;;;;;15.20;5.25;;;10.50;46.40;;;;;;5063767;28;20021;-69
2021/04/03 11:16:31;;;;;;;14.00;5.93;;;10.10;47.90;;;;;;5063464;28;20440;-69
2021/04/03 11:19:00;;;;;;;16.23;6.93;;;9.80;46.40;;;;;;5056318;28;20434;-69
2021/04/03 11:21:28;;;;;;;14.40;4.82;;;9.70;50.10;;;;;;5070656;28;20020;-69
2021/04/03 11:53:44;;;;;;;17.60;8.00;;;10.20;41.20;;;;;;4984980;28;20060;-70
2021/04/03 11:56:12;;;;;;;;;;;10.20;40.30;;;;;;5013694;28;20273;-69
2021/04/03 11:58:40;;;;;;;17.52;6.28;;;10.20;39.40;;;;;;5014668;28;20000;-70
2021/04/03 12:01:17;;;;;;;14.45;6.18;;;10.30;42.80;;;;;;5012706;28;20037;-70
2021/04/03 12:03:52;;;;;;;7.15;3.13;;;10.40;39.50;;;;;;5069182;28;20028;-70
2021/04/03 12:06:36;;;;;;;9.10;3.67;;;10.70;38.40;;;;;;5064619;28;20033;-70
2021/04/03 12:10:03;;;;;;;7.53;4.18;;;11.00;38.80;;;;;;5055638;28;20036;-71
2021/04/03 12:15:49;;;;;;;6.30;3.00;;;10.80;35.90;;;;;;5043131;28;20040;-71
2021/04/03 12:18:59;;;;;;;;;;;;;;;;;;;;;
2021/04/03 12:21:17;;;;;;;79.20;46.50;;;10.50;37.50;;;;;;5055383;28;20112;-71
2021/04/03 12:24:01;;;;;;;6.72;3.75;;;10.60;38.80;;;;;;5045569;28;20025;-68
2021/04/03 12:27:00;;;;;;;19.45;7.75;;;10.30;39.70;;;;;;5061508;28;20096;-69
2021/04/03 12:29:53;;;;;;;4.43;1.50;;;10.10;38.10;;;;;;5023278;28;20128;-69
2021/04/03 12:33:04;;;;;;;;;;;;;;;;;;;;;
2021/04/03 12:36:20;;;;;;;;;;;;;;;;;;;;;
2021/04/03 12:42:26;;;;;;;6.93;2.63;;;10.50;36.20;;;;;;4979651;28;20524;-69
2021/04/03 12:48:06;;;;;;;7.18;3.10;;;10.30;36.70;;;;;;5070110;28;20120;-69
2021/04/03 12:50:32;;;;;;;5.78;2.33;;;10.50;37.10;;;;;;5072152;28;20115;-70
2021/04/03 12:52:57;;;;;;;3.45;2.00;;;10.60;37.30;;;;;;5071968;28;20030;-70
2021/04/03 12:55:23;;;;;;;5.07;2.05;;;10.50;35.60;;;;;;5054023;28;20029;-70
2021/04/03 12:57:48;;;;;;;6.25;2.42;;;10.60;37.00;;;;;;5052375;28;20020;-69
2021/04/03 13:00:15;;;;;;;3.42;2.08;;;10.70;36.00;;;;;;5053975;28;20223;-70
2021/04/03 13:02:40;;;;;;;1.75;0.80;;;10.70;34.20;;;;;;5071998;28;20390;-71
2021/04/03 13:05:07;;;;;;;4.07;1.48;;;10.80;32.90;;;;;;5071740;28;20016;-72
2021/04/03 13:07:32;;;;;;;4.43;1.55;;;11.00;33.80;;;;;;5071183;28;20454;-71
2021/04/03 13:09:58;;;;;;;3.20;1.25;;;11.20;33.60;;;;;;5071987;28;20103;-70
2021/04/03 13:12:26;;;;;;;3.90;1.60;;;11.20;33.40;;;;;;5071539;28;20020;-70
2021/04/03 13:14:52;;;;;;;4.32;2.13;;;11.00;34.60;;;;;;5071386;28;20033;-70
2021/04/03 13:17:17;;;;;;;3.35;1.67;;;10.70;35.40;;;;;;5070821;28;20024;-72
2021/04/03 13:19:44;;;;;;;4.35;1.95;;;10.50;35.20;;;;;;5071408;28;20021;-71
2021/04/03 13:22:09;;;;;;;6.93;2.58;;;10.30;35.60;;;;;;5054013;28;20067;-70
2021/04/03 13:24:35;;;;;;;3.60;2.05;;;10.40;36.80;;;;;;5054352;28;20052;-70
2021/04/03 13:27:00;;;;;;;3.70;2.28;;;10.60;35.00;;;;;;5053538;28;20024;-70
2021/04/03 13:29:26;;;;;;;2.38;1.17;;;10.70;35.20;;;;;;5054941;28;20097;-70
2021/04/03 13:31:51;;;;;;;6.20;2.10;;;10.40;34.90;;;;;;5053835;28;20504;-70
2021/04/03 13:34:17;;;;;;;5.25;2.15;;;10.20;36.20;;;;;;5053240;28;20032;-69
2021/04/03 13:36:45;;;;;;;3.80;1.60;;;10.10;36.30;;;;;;5052926;28;20020;-69